Terminal Aerodrome Forecast
Issued by NWS Boston, MA

Home | Current Version | Previous Version | Text Only | Print | Product List | Glossary On
Versions: 1 2 3 4 5 6 7 8 9 10 11 12 13 14 15 16 17 18 19
000
FTUS41 KBOX 060831 AAA
TAFORH
TAF AMD
KORH 060831Z 0609/0706 02008KT P6SM OVC015
     FM061200 03006KT 6SM BR VCSH BKN025
     FM061600 07008KT P6SM VCSH BKN025
     FM070000 08007KT 4SM -SHRA BKN015
     FM070400 07006KT 3SM BR VCSH OVC010=

USA.gov is the U.S. government's official web portal to all federal, state and local government web resources and services.